createdAt,value
2019-04-03T00:00:38.354Z,2.20
2019-04-03T00:03:06.617Z,2.22
2019-04-03T00:05:35.479Z,1.98
2019-04-03T00:08:03.054Z,1.90
2019-04-03T00:10:31.253Z,1.87
2019-04-03T00:12:59.490Z,1.98
2019-04-03T00:15:27.716Z,2.03
2019-04-03T00:17:55.956Z,2.03
2019-04-03T00:20:24.193Z,1.80
2019-04-03T00:22:52.530Z,1.80
2019-04-03T00:25:22.151Z,2.20
2019-04-03T00:27:50.792Z,2.30
2019-04-03T00:30:18.330Z,2.00
2019-04-03T00:32:46.581Z,2.12
2019-04-03T00:35:14.798Z,2.08
2019-04-03T00:37:43.173Z,2.08
2019-04-03T00:40:11.407Z,2.20
2019-04-03T00:42:39.684Z,2.37
2019-04-03T00:45:07.862Z,2.50
2019-04-03T00:47:36.098Z,2.12
2019-04-03T00:50:05.234Z,2.10
2019-04-03T00:52:33.457Z,2.20
2019-04-03T00:55:01.660Z,2.20
2019-04-03T00:57:29.913Z,2.08
2019-04-03T00:59:58.126Z,2.28
2019-04-03T01:02:27.918Z,2.47
2019-04-03T01:04:54.607Z,2.20
2019-04-03T01:07:22.815Z,2.37
2019-04-03T01:09:51.058Z,2.63
2019-04-03T01:12:19.303Z,2.83
2019-04-03T01:14:47.556Z,3.00
2019-04-03T01:17:15.794Z,3.03
2019-04-03T01:19:44.016Z,3.30
2019-04-03T01:22:12.277Z,3.33
2019-04-03T01:24:40.479Z,3.67
2019-04-03T01:27:11.277Z,3.28
2019-04-03T01:29:37.000Z,3.10
2019-04-03T01:32:05.234Z,3.67
2019-04-03T01:34:33.458Z,4.15
2019-04-03T01:37:01.707Z,3.80
2019-04-03T01:39:29.941Z,3.60
2019-04-03T01:41:58.299Z,4.20
2019-04-03T01:44:26.431Z,4.10
2019-04-03T01:46:57.418Z,3.90
2019-04-03T01:49:22.879Z,4.50
2019-04-03T01:51:51.081Z,4.25
2019-04-03T01:54:19.440Z,4.15
2019-04-03T01:56:47.563Z,4.40
2019-04-03T01:59:15.806Z,3.97
2019-04-03T02:01:44.127Z,4.53
2019-04-03T02:04:13.048Z,4.30
2019-04-03T02:06:41.817Z,4.07
2019-04-03T02:09:08.940Z,4.30
2019-04-03T02:11:37.185Z,4.20
2019-04-03T02:14:05.304Z,4.50
2019-04-03T02:16:33.507Z,4.10
2019-04-03T02:19:01.684Z,4.40
2019-04-03T02:21:29.916Z,4.68
2019-04-03T02:23:58.156Z,4.80
2019-04-03T02:26:26.387Z,4.87
2019-04-03T02:28:54.647Z,4.60
2019-04-03T02:31:22.825Z,4.80
2019-04-03T02:33:51.022Z,4.97
2019-04-03T02:36:19.283Z,4.60
2019-04-03T02:38:47.575Z,4.60
2019-04-03T02:41:15.726Z,4.47
2019-04-03T02:43:46.527Z,4.93
2019-04-03T02:46:12.509Z,4.60
2019-04-03T02:48:40.413Z,4.70
2019-04-03T02:51:08.668Z,5.15
2019-04-03T02:53:36.862Z,5.32
2019-04-03T02:56:05.057Z,5.05
2019-04-03T02:58:33.256Z,6.00
2019-04-03T03:01:05.561Z,5.97
2019-04-03T03:03:29.977Z,6.22
2019-04-03T03:06:00.614Z,6.50
2019-04-03T03:08:26.196Z,6.20
2019-04-03T03:10:54.472Z,6.15
2019-04-03T03:13:22.663Z,5.90
2019-04-03T03:15:50.968Z,6.37
2019-04-03T03:18:19.449Z,6.75
2019-04-03T03:20:47.364Z,6.72
2019-04-03T03:23:15.602Z,6.45
2019-04-03T03:25:43.838Z,7.03
2019-04-03T03:28:14.389Z,6.62
2019-04-03T03:30:46.823Z,6.87
2019-04-03T03:33:26.448Z,6.30
2019-04-03T03:35:42.121Z,6.20
2019-04-03T03:38:07.075Z,5.72
2019-04-03T03:40:33.226Z,5.37
2019-04-03T03:43:04.532Z,5.47
2019-04-03T03:45:29.653Z,5.22
2019-04-03T03:47:57.931Z,5.22
2019-04-03T03:50:26.175Z,4.90
2019-04-03T03:52:54.364Z,4.57
2019-04-03T03:55:24.312Z,4.60
2019-04-03T03:57:50.832Z,4.85
2019-04-03T04:00:22.606Z,4.72
2019-04-03T04:02:47.430Z,4.68
2019-04-03T04:05:20.010Z,4.43
2019-04-03T04:07:43.829Z,4.85
2019-04-03T04:10:12.067Z,4.82
2019-04-03T04:12:41.905Z,5.60
2019-04-03T04:15:08.615Z,5.43
2019-04-03T04:17:36.901Z,5.32
2019-04-03T04:20:06.302Z,6.07
2019-04-03T04:22:34.093Z,5.82
2019-04-03T04:25:02.304Z,6.80
2019-04-03T04:27:33.458Z,7.07
2019-04-03T04:29:58.778Z,7.80
2019-04-03T04:32:26.988Z,8.38
2019-04-03T04:34:55.207Z,8.93
2019-04-03T04:37:26.027Z,8.30
2019-04-03T04:39:51.620Z,8.80
2019-04-03T04:42:19.833Z,8.90
2019-04-03T04:44:48.071Z,10.10
2019-04-03T04:47:16.299Z,10.25
2019-04-03T04:49:44.575Z,10.48
2019-04-03T04:52:12.813Z,9.93
2019-04-03T04:54:42.939Z,10.35
2019-04-03T04:57:09.517Z,11.68
2019-04-03T04:59:37.512Z,11.50
2019-04-03T05:02:05.773Z,11.30
2019-04-03T05:04:33.975Z,11.33
2019-04-03T05:07:02.147Z,11.00
2019-04-03T05:09:30.397Z,12.25
2019-04-03T05:11:58.745Z,11.93
2019-04-03T05:14:26.981Z,12.02
2019-04-03T05:16:55.893Z,11.75
2019-04-03T05:19:23.447Z,14.77
2019-04-03T05:21:52.882Z,13.55
2019-04-03T05:24:19.832Z,14.50
2019-04-03T05:26:48.080Z,14.15
2019-04-03T05:29:16.304Z,15.40
2019-04-03T05:31:44.524Z,16.10
2019-04-03T05:34:13.734Z,15.55
2019-04-03T05:36:40.999Z,14.90
2019-04-03T05:39:09.244Z,14.50
2019-04-03T05:41:37.452Z,15.48
2019-04-03T05:44:05.655Z,15.37
2019-04-03T05:46:36.510Z,15.25
2019-04-03T05:49:02.285Z,14.32
2019-04-03T05:51:30.387Z,13.77
2019-04-03T05:53:58.561Z,13.73
2019-04-03T05:56:27.031Z,14.30
2019-04-03T05:58:57.236Z,13.57
2019-04-03T06:01:23.358Z,13.30
2019-04-03T06:03:51.448Z,13.73
2019-04-03T06:06:19.712Z,12.57
2019-04-03T06:08:50.783Z,12.45
2019-04-03T06:11:16.188Z,11.07
2019-04-03T06:13:44.427Z,11.07
2019-04-03T06:16:12.641Z,10.63
2019-04-03T06:18:40.907Z,10.02
2019-04-03T06:21:09.116Z,9.20
2019-04-03T06:23:37.332Z,9.05
2019-04-03T06:26:05.655Z,8.02
2019-04-03T06:28:33.769Z,8.55
2019-04-03T06:31:01.985Z,8.00
2019-04-03T06:33:31.718Z,7.10
2019-04-03T06:35:58.584Z,6.80
2019-04-03T06:38:26.653Z,6.80
2019-04-03T06:40:55.005Z,6.30
2019-04-03T06:43:23.128Z,6.62
2019-04-03T06:45:51.621Z,5.80
2019-04-03T06:48:19.652Z,6.27
2019-04-03T06:50:47.823Z,6.28
2019-04-03T06:53:16.265Z,6.60
2019-04-03T06:55:44.501Z,6.37
2019-04-03T06:58:12.833Z,6.50
2019-04-03T07:00:41.109Z,4.20
2019-04-03T07:03:09.128Z,5.35
2019-04-03T07:05:37.412Z,5.70
2019-04-03T07:08:06.132Z,5.43
2019-04-03T07:10:34.554Z,5.47
2019-04-03T07:13:01.996Z,5.60
2019-04-03T07:15:30.194Z,5.30
2019-04-03T07:18:00.977Z,5.50
2019-04-03T07:20:26.680Z,6.20
2019-04-03T07:22:54.910Z,6.30
2019-04-03T07:25:23.171Z,6.35
2019-04-03T07:27:51.398Z,5.00
2019-04-03T07:30:21.407Z,6.35
2019-04-03T07:32:47.989Z,5.50
2019-04-03T07:35:16.114Z,5.40
2019-04-03T07:37:44.296Z,4.68
2019-04-03T07:40:12.522Z,4.30
2019-04-03T07:42:40.750Z,4.57
2019-04-03T07:45:09.032Z,4.60
2019-04-03T07:47:37.230Z,4.30
2019-04-03T07:50:05.642Z,4.63
2019-04-03T07:52:33.843Z,4.70
2019-04-03T07:55:02.211Z,5.15
2019-04-03T07:57:30.188Z,5.90
2019-04-03T07:59:58.738Z,5.37
2019-04-03T08:02:26.937Z,5.43
2019-04-03T08:04:59.268Z,5.77
2019-04-03T08:07:24.070Z,6.05
2019-04-03T08:09:52.284Z,5.90
2019-04-03T08:12:20.773Z,6.40
2019-04-03T08:14:48.872Z,7.25
2019-04-03T08:17:19.361Z,6.97
2019-04-03T08:19:45.983Z,6.68
2019-04-03T08:22:13.397Z,7.20
2019-04-03T08:24:41.605Z,7.43
2019-04-03T08:27:10.044Z,7.40
2019-04-03T08:29:38.697Z,7.80
2019-04-03T08:32:06.579Z,7.75
2019-04-03T08:34:34.763Z,7.97
2019-04-03T08:37:02.996Z,8.40
2019-04-03T08:39:31.227Z,8.10
2019-04-03T08:41:59.410Z,7.75
2019-04-03T08:44:27.641Z,7.55
2019-04-03T08:46:55.898Z,7.20
2019-04-03T08:49:26.318Z,7.77
2019-04-03T08:51:52.382Z,7.18
2019-04-03T08:54:20.677Z,8.52
2019-04-03T08:56:49.440Z,7.95
2019-04-03T08:59:17.191Z,7.47
2019-04-03T09:01:45.237Z,7.90
2019-04-03T09:04:16.220Z,7.10
2019-04-03T09:06:41.757Z,8.18
2019-04-03T09:09:09.935Z,7.85
2019-04-03T09:11:38.178Z,8.90
2019-04-03T09:14:06.314Z,7.75
2019-04-03T09:16:34.578Z,7.27
2019-04-03T09:19:02.741Z,7.53
2019-04-03T09:21:31.028Z,7.78
2019-04-03T09:23:59.145Z,7.15
2019-04-03T09:26:27.659Z,7.20
2019-04-03T09:28:55.618Z,7.00
2019-04-03T09:31:24.054Z,6.97
2019-04-03T09:33:52.107Z,7.22
2019-04-03T09:36:20.343Z,6.95
2019-04-03T09:38:48.587Z,7.20
2019-04-03T09:41:17.117Z,7.40
2019-04-03T09:43:44.967Z,5.87
2019-04-03T09:46:13.415Z,3.20
2019-04-03T09:48:41.397Z,2.35
2019-04-03T09:51:09.851Z,1.60
2019-04-03T09:53:37.840Z,1.30
2019-04-03T09:56:07.927Z,0.95
2019-04-03T09:58:35.312Z,1.00
2019-04-03T10:01:02.744Z,1.10
2019-04-03T10:03:31.627Z,1.30
2019-04-03T10:06:00.149Z,0.93
2019-04-03T10:08:27.127Z,1.17
2019-04-03T10:10:55.581Z,0.90
2019-04-03T10:13:25.821Z,1.10
2019-04-03T10:15:51.760Z,1.20
2019-04-03T10:18:21.993Z,2.08
2019-04-03T10:20:49.484Z,1.52
2019-04-03T10:23:16.689Z,3.22
2019-04-03T10:25:44.737Z,3.60
2019-04-03T10:28:14.741Z,3.92
2019-04-03T10:30:41.108Z,3.58
2019-04-03T10:33:09.337Z,3.27
2019-04-03T10:35:39.336Z,2.30
2019-04-03T10:38:05.756Z,1.10
2019-04-03T10:40:34.215Z,1.10
2019-04-03T10:43:04.634Z,1.00
2019-04-03T10:45:30.388Z,0.75
2019-04-03T10:47:58.889Z,0.50
2019-04-03T10:50:26.801Z,0.60
2019-04-03T10:52:55.389Z,0.80
2019-04-03T10:55:23.223Z,0.80
2019-04-03T10:57:51.494Z,0.80
2019-04-03T11:00:19.889Z,0.50
2019-04-03T11:02:47.893Z,0.50
2019-04-03T11:05:16.153Z,0.50
2019-04-03T11:07:44.754Z,0.60
2019-04-03T11:10:13.106Z,0.40
2019-04-03T11:12:41.209Z,0.50
2019-04-03T11:15:11.538Z,0.50
2019-04-03T11:17:37.378Z,0.60
2019-04-03T11:20:07.039Z,0.50
2019-04-03T11:22:40.638Z,0.50
2019-04-03T11:25:02.089Z,0.50
2019-04-03T11:27:41.774Z,0.50
2019-04-03T11:29:58.593Z,0.50
2019-04-03T11:32:26.790Z,0.50
2019-04-03T11:34:55.269Z,0.60
2019-04-03T11:37:23.233Z,0.50
2019-04-03T11:40:01.416Z,0.57
2019-04-03T11:42:24.846Z,0.50
2019-04-03T11:44:48.122Z,0.60
2019-04-03T11:47:16.156Z,0.65
2019-04-03T11:49:44.512Z,0.80
2019-04-03T11:52:13.605Z,0.80
2019-04-03T11:54:41.819Z,0.80
2019-04-03T11:57:10.100Z,0.70
2019-04-03T11:59:38.291Z,0.60
2019-04-03T12:02:07.855Z,0.70
2019-04-03T12:04:34.868Z,0.70
2019-04-03T12:07:03.016Z,0.73
2019-04-03T12:09:32.377Z,0.80
2019-04-03T12:11:59.363Z,0.90
2019-04-03T12:14:27.593Z,0.90
2019-04-03T12:16:58.322Z,0.80
2019-04-03T12:19:24.067Z,0.77
2019-04-03T12:21:52.311Z,0.80
2019-04-03T12:24:20.694Z,0.93
2019-04-03T12:26:51.385Z,0.70
2019-04-03T12:29:16.969Z,0.87
2019-04-03T12:31:45.139Z,0.70
2019-04-03T12:34:13.323Z,0.50
2019-04-03T12:36:41.542Z,0.50
2019-04-03T12:39:09.751Z,0.50
2019-04-03T12:41:38.078Z,0.50
2019-04-03T12:44:06.195Z,0.50
2019-04-03T12:46:37.503Z,0.40
2019-04-03T12:49:07.461Z,0.35
2019-04-03T12:51:33.617Z,0.43
2019-04-03T12:54:01.821Z,0.50
2019-04-03T12:56:30.894Z,0.30
2019-04-03T12:58:58.574Z,0.20
2019-04-03T13:01:26.711Z,0.30
2019-04-03T13:03:56.372Z,0.30
2019-04-03T13:06:22.885Z,0.30
2019-04-03T13:08:51.067Z,0.30
2019-04-03T13:11:20.448Z,0.40
2019-04-03T13:13:47.524Z,0.40
2019-04-03T13:16:15.830Z,0.50
2019-04-03T13:18:44.094Z,0.60
2019-04-03T13:21:12.179Z,0.52
2019-04-03T13:23:40.461Z,0.60
2019-04-03T13:26:08.631Z,0.70
2019-04-03T13:28:39.785Z,0.60
2019-04-03T13:31:05.236Z,0.60
2019-04-03T13:33:33.456Z,0.43
2019-04-03T13:36:01.591Z,0.77
2019-04-03T13:38:30.101Z,0.70
2019-04-03T13:40:58.363Z,0.60
2019-04-03T13:43:26.524Z,0.90
2019-04-03T13:45:54.706Z,0.80
2019-04-03T13:48:22.978Z,0.75
2019-04-03T13:50:53.980Z,0.93
2019-04-03T13:53:20.465Z,0.70
2019-04-03T13:55:47.837Z,0.90
2019-04-03T13:58:15.784Z,0.90
2019-04-03T14:00:56.754Z,0.90
2019-04-03T14:03:12.639Z,1.00
2019-04-03T14:05:42.628Z,1.10
2019-04-03T14:08:08.624Z,1.20
2019-04-03T14:10:37.256Z,1.35
2019-04-03T14:13:05.876Z,1.55
2019-04-03T14:15:34.362Z,1.50
2019-04-03T14:18:02.303Z,1.30
2019-04-03T14:20:30.957Z,1.23
2019-04-03T14:22:58.755Z,1.10
2019-04-03T14:25:31.429Z,1.35
2019-04-03T14:27:55.651Z,1.20
2019-04-03T14:30:23.421Z,1.00
2019-04-03T14:32:52.865Z,0.93
2019-04-03T14:35:51.917Z,0.90
2019-04-03T14:37:49.220Z,0.90
2019-04-03T14:40:17.733Z,0.98
2019-04-03T14:42:45.623Z,1.00
2019-04-03T14:45:15.281Z,0.80
2019-04-03T14:47:42.098Z,1.00
2019-04-03T14:50:10.325Z,1.30
2019-04-03T14:52:38.485Z,1.80
2019-04-03T14:55:16.642Z,2.00
2019-04-03T14:57:34.919Z,2.27
2019-04-03T15:00:16.137Z,2.30
2019-04-03T15:02:31.302Z,2.35
2019-04-03T15:04:59.553Z,2.17
2019-04-03T15:07:27.798Z,2.70
2019-04-03T15:09:58.613Z,2.97
2019-04-03T15:12:24.210Z,3.30
2019-04-03T15:14:54.479Z,2.97
2019-04-03T15:17:20.617Z,3.10
2019-04-03T15:19:48.848Z,3.62
2019-04-03T15:22:17.023Z,3.67
2019-04-03T15:24:45.201Z,4.00
2019-04-03T15:27:13.483Z,4.22
2019-04-03T15:29:41.969Z,4.30
2019-04-03T15:32:09.851Z,4.03
2019-04-03T15:34:38.083Z,4.50
2019-04-03T15:37:08.934Z,4.05
2019-04-03T15:39:34.535Z,4.00
2019-04-03T15:42:06.161Z,4.47
2019-04-03T15:44:31.215Z,5.18
2019-04-03T15:47:01.181Z,5.37
2019-04-03T15:49:27.867Z,6.18
2019-04-03T15:51:56.961Z,5.53
2019-04-03T15:54:26.447Z,5.50
2019-04-03T15:56:53.420Z,5.45
2019-04-03T15:59:21.780Z,5.55
2019-04-03T16:01:49.650Z,5.07
2019-04-03T16:04:18.388Z,5.10
2019-04-03T16:06:46.101Z,6.90
2019-04-03T16:09:17.277Z,8.20
2019-04-03T16:11:43.821Z,8.50
2019-04-03T16:14:11.759Z,4.62
2019-04-03T16:16:40.321Z,4.60
2019-04-03T16:19:11.380Z,4.25
2019-04-03T16:21:36.487Z,4.80
2019-04-03T16:24:07.794Z,4.50
2019-04-03T16:26:32.965Z,4.00
2019-04-03T16:29:01.193Z,3.42
2019-04-03T16:31:29.433Z,4.75
2019-04-03T16:33:57.665Z,2.67
2019-04-03T16:36:25.878Z,2.90
2019-04-03T16:38:54.072Z,2.08
2019-04-03T16:41:22.366Z,1.42
2019-04-03T16:43:50.534Z,1.65
2019-04-03T16:46:18.749Z,1.50
2019-04-03T16:48:49.077Z,1.75
2019-04-03T16:51:15.541Z,2.00
2019-04-03T16:53:43.560Z,1.80
2019-04-03T16:56:11.805Z,1.67
2019-04-03T16:58:39.882Z,2.20
2019-04-03T17:01:08.049Z,1.98
2019-04-03T17:03:36.450Z,1.70
2019-04-03T17:06:04.496Z,1.83
2019-04-03T17:08:32.862Z,2.23
2019-04-03T17:11:00.940Z,2.20
2019-04-03T17:13:29.168Z,2.27
2019-04-03T17:15:57.353Z,3.00
2019-04-03T17:18:25.526Z,3.70
2019-04-03T17:20:56.188Z,4.28
2019-04-03T17:23:21.971Z,4.50
2019-04-03T17:25:51.662Z,3.25
2019-04-03T17:28:18.403Z,3.30
2019-04-03T17:30:49.874Z,4.12
2019-04-03T17:33:14.910Z,4.82
2019-04-03T17:35:46.171Z,4.60
2019-04-03T17:38:11.825Z,5.20
2019-04-03T17:40:39.631Z,4.35
2019-04-03T17:43:07.833Z,4.90
2019-04-03T17:45:36.077Z,5.03
2019-04-03T17:48:04.318Z,4.57
2019-04-03T17:50:32.525Z,4.47
2019-04-03T17:53:00.738Z,5.80
2019-04-03T17:55:28.990Z,5.82
2019-04-03T17:57:57.183Z,6.53
2019-04-03T18:00:25.390Z,5.30
2019-04-03T18:02:53.630Z,5.37
2019-04-03T18:05:21.847Z,6.90
2019-04-03T18:07:50.079Z,7.12
2019-04-03T18:10:18.290Z,6.25
2019-04-03T18:12:46.507Z,6.30
2019-04-03T18:15:14.703Z,6.53
2019-04-03T18:17:42.952Z,6.80
2019-04-03T18:20:13.336Z,7.73
2019-04-03T18:22:39.346Z,6.60
2019-04-03T18:25:08.661Z,7.47
2019-04-03T18:27:36.675Z,6.82
2019-04-03T18:30:05.842Z,7.28
2019-04-03T18:32:34.102Z,10.73
2019-04-03T18:35:02.281Z,8.95
2019-04-03T18:37:30.530Z,11.93
2019-04-03T18:39:58.815Z,11.30
2019-04-03T18:42:26.986Z,10.55
2019-04-03T18:44:55.972Z,14.20
2019-04-03T18:47:23.527Z,14.15
2019-04-03T18:49:51.783Z,14.05
2019-04-03T18:52:19.970Z,13.10
2019-04-03T18:54:48.237Z,14.43
2019-04-03T18:57:17.090Z,17.33
2019-04-03T18:59:44.679Z,19.15
2019-04-03T19:02:12.935Z,20.40
2019-04-03T19:04:41.666Z,17.90
2019-04-03T19:07:09.296Z,17.10
2019-04-03T19:09:37.560Z,18.77
2019-04-03T19:12:08.734Z,18.08
2019-04-03T19:14:34.017Z,19.52
2019-04-03T19:17:02.273Z,20.27
2019-04-03T19:19:30.471Z,16.27
2019-04-03T19:21:58.648Z,18.12
2019-04-03T19:24:26.917Z,16.80
2019-04-03T19:26:55.111Z,16.23
2019-04-03T19:29:23.341Z,15.10
2019-04-03T19:31:51.576Z,16.70
2019-04-03T19:34:20.745Z,15.45
2019-04-03T19:36:48.037Z,15.00
2019-04-03T19:39:16.282Z,14.20
2019-04-03T19:41:44.486Z,10.45
2019-04-03T19:44:12.682Z,9.07
2019-04-03T19:46:40.957Z,9.00
2019-04-03T19:49:09.193Z,8.80
2019-04-03T19:51:37.930Z,11.20
2019-04-03T19:54:05.659Z,13.80
2019-04-03T19:56:33.907Z,11.38
2019-04-03T19:59:04.755Z,10.43
2019-04-03T20:01:30.446Z,10.48
2019-04-03T20:03:58.656Z,13.05
2019-04-03T20:06:26.997Z,12.43
2019-04-03T20:08:55.226Z,12.13
2019-04-03T20:11:23.476Z,13.02
2019-04-03T20:13:51.715Z,10.90
2019-04-03T20:16:20.001Z,10.77
2019-04-03T20:18:48.267Z,12.52
2019-04-03T20:21:16.456Z,9.80
2019-04-03T20:23:44.713Z,11.02
2019-04-03T20:26:12.915Z,14.20
2019-04-03T20:28:41.169Z,12.75
2019-04-03T20:31:09.415Z,10.80
2019-04-03T20:33:37.637Z,11.07
2019-04-03T20:36:05.833Z,12.43
2019-04-03T20:38:34.092Z,12.45
2019-04-03T20:41:03.305Z,12.65
2019-04-03T20:43:30.572Z,13.50
2019-04-03T20:45:58.810Z,14.32
2019-04-03T20:48:28.308Z,15.27
2019-04-03T20:50:55.260Z,11.80
2019-04-03T20:53:23.535Z,13.70
2019-04-03T20:55:51.795Z,13.27
2019-04-03T20:58:20.048Z,12.65
2019-04-03T21:00:51.537Z,10.50
2019-04-03T21:03:16.507Z,11.60
2019-04-03T21:05:44.765Z,10.52
2019-04-03T21:08:13.009Z,11.25
2019-04-03T21:10:41.223Z,11.25
2019-04-03T21:13:09.414Z,12.15
2019-04-03T21:15:37.706Z,15.07
2019-04-03T21:18:05.891Z,15.43
2019-04-03T21:20:34.108Z,15.38
2019-04-03T21:23:03.560Z,16.20
2019-04-03T21:25:30.544Z,18.90
2019-04-03T21:27:58.789Z,16.73
2019-04-03T21:30:27.052Z,14.10
2019-04-03T21:32:55.260Z,14.70
2019-04-03T21:35:23.499Z,16.87
2019-04-03T21:37:51.746Z,21.87
2019-04-03T21:40:19.991Z,25.05
2019-04-03T21:42:48.241Z,27.10
2019-04-03T21:45:16.492Z,28.80
2019-04-03T21:47:44.744Z,27.33
2019-04-03T21:50:12.927Z,27.00
2019-04-03T21:52:41.168Z,27.60
2019-04-03T21:55:09.355Z,29.70
2019-04-03T21:57:38.267Z,31.62
2019-04-03T22:00:07.569Z,26.55
2019-04-03T22:02:35.807Z,26.90
2019-04-03T22:05:06.948Z,28.52
2019-04-03T22:07:32.288Z,24.95
2019-04-03T22:10:02.020Z,24.73
2019-04-03T22:12:28.739Z,23.87
2019-04-03T22:14:56.955Z,21.92
2019-04-03T22:17:25.131Z,20.05
2019-04-03T22:19:53.314Z,14.85
2019-04-03T22:22:21.558Z,12.20
2019-04-03T22:24:49.807Z,12.80
2019-04-03T22:27:18.021Z,13.07
2019-04-03T22:29:46.248Z,14.95
2019-04-03T22:32:14.448Z,13.52
2019-04-03T22:34:42.638Z,12.40
2019-04-03T22:37:10.875Z,14.32
2019-04-03T22:39:39.637Z,12.37
2019-04-03T22:42:07.279Z,15.32
2019-04-03T22:44:35.520Z,15.18
2019-04-03T22:47:03.756Z,13.85
2019-04-03T22:49:33.643Z,15.05
2019-04-03T22:52:00.244Z,14.02
2019-04-03T22:54:28.480Z,17.20
2019-04-03T22:56:56.716Z,15.55
2019-04-03T22:59:24.966Z,18.42
2019-04-03T23:01:53.173Z,17.00
2019-04-03T23:04:21.408Z,18.27
2019-04-03T23:06:50.159Z,16.92
2019-04-03T23:09:17.879Z,20.02
2019-04-03T23:11:46.120Z,20.33
2019-04-03T23:14:14.403Z,20.17
2019-04-03T23:16:43.228Z,20.33
2019-04-03T23:19:10.828Z,19.10
2019-04-03T23:21:39.047Z,23.62
2019-04-03T23:24:07.270Z,23.70
2019-04-03T23:26:35.480Z,18.70
2019-04-03T23:29:05.253Z,19.50
2019-04-03T23:31:31.930Z,19.05
2019-04-03T23:34:00.173Z,20.77
2019-04-03T23:36:28.458Z,22.70
2019-04-03T23:38:57.122Z,25.73
2019-04-03T23:41:24.849Z,22.25
2019-04-03T23:43:53.063Z,20.07
2019-04-03T23:46:21.262Z,20.00
2019-04-03T23:48:49.604Z,21.60
2019-04-03T23:51:23.058Z,21.87
2019-04-03T23:53:45.927Z,22.20
2019-04-03T23:56:14.157Z,25.12
2019-04-03T23:58:42.444Z,25.50
